createdAt,value
2024-01-03T00:00:30.301Z,3.63
2024-01-03T00:02:58.537Z,4.82
2024-01-03T00:05:27.288Z,4.25
2024-01-03T00:07:55.718Z,4.35
2024-01-03T00:10:41.752Z,5.30
2024-01-03T00:13:24.201Z,5.15
2024-01-03T00:16:14.482Z,4.72
2024-01-03T00:18:46.607Z,5.53
2024-01-03T00:21:15.620Z,5.32
2024-01-03T00:23:46.907Z,4.28
2024-01-03T00:26:14.834Z,4.43
2024-01-03T00:28:42.987Z,4.40
2024-01-03T00:31:14.549Z,3.75
2024-01-03T00:33:43.581Z,3.20
2024-01-03T00:36:14.164Z,3.00
2024-01-03T00:38:43.581Z,2.75
2024-01-03T00:41:12.980Z,2.33
2024-01-03T00:43:42.095Z,2.13
2024-01-03T00:46:14.609Z,1.75
2024-01-03T00:48:42.917Z,1.70
2024-01-03T00:51:11.206Z,2.08
2024-01-03T00:53:39.583Z,1.55
2024-01-03T00:56:07.706Z,1.92
2024-01-03T00:58:35.783Z,1.50
2024-01-03T01:01:03.857Z,2.00
2024-01-03T01:03:33.191Z,1.70
2024-01-03T01:06:01.076Z,1.50
2024-01-03T01:08:28.778Z,1.80
2024-01-03T01:10:56.530Z,1.83
2024-01-03T01:13:24.188Z,1.55
2024-01-03T01:15:51.968Z,1.67
2024-01-03T01:18:19.822Z,1.52
2024-01-03T01:20:49.471Z,2.10
2024-01-03T01:23:17.522Z,1.48
2024-01-03T01:25:45.238Z,1.83
2024-01-03T01:28:13.559Z,1.65
2024-01-03T01:30:41.185Z,1.83
2024-01-03T01:33:09.429Z,1.70
2024-01-03T01:35:37.157Z,1.60
2024-01-03T01:38:07.864Z,1.60
2024-01-03T01:40:36.166Z,1.60
2024-01-03T01:43:03.804Z,1.58
2024-01-03T01:45:31.380Z,1.50
2024-01-03T01:47:59.199Z,2.05
2024-01-03T01:50:27.400Z,1.30
2024-01-03T01:52:55.295Z,1.73
2024-01-03T01:55:24.346Z,1.55
2024-01-03T01:57:54.003Z,1.60
2024-01-03T02:00:21.749Z,1.42
2024-01-03T02:02:50.131Z,1.98
2024-01-03T02:05:18.662Z,1.42
2024-01-03T02:07:46.334Z,1.50
2024-01-03T02:10:13.969Z,1.75
2024-01-03T02:12:42.988Z,1.42
2024-01-03T02:15:10.963Z,1.85
2024-01-03T02:17:40.776Z,1.70
2024-01-03T02:20:08.820Z,1.75
2024-01-03T02:22:37.798Z,1.60
2024-01-03T02:25:12.879Z,1.48
2024-01-03T02:27:40.575Z,1.15
2024-01-03T02:30:10.091Z,1.55
2024-01-03T02:32:37.989Z,1.75
2024-01-03T02:35:06.707Z,1.50
2024-01-03T02:37:34.842Z,1.20
2024-01-03T02:40:05.249Z,1.40
2024-01-03T02:42:32.836Z,1.38
2024-01-03T02:45:00.479Z,1.08
2024-01-03T02:47:28.304Z,1.20
2024-01-03T02:49:59.455Z,1.50
2024-01-03T02:52:27.706Z,1.17
2024-01-03T02:54:56.175Z,1.20
2024-01-03T02:57:25.246Z,0.90
2024-01-03T02:59:53.003Z,0.90
2024-01-03T03:02:20.948Z,1.20
2024-01-03T03:04:49.050Z,1.15
2024-01-03T03:07:17.222Z,1.15
2024-01-03T03:09:44.760Z,1.40
2024-01-03T03:12:12.523Z,1.40
2024-01-03T03:14:41.791Z,1.27
2024-01-03T03:17:09.501Z,1.40
2024-01-03T03:19:37.452Z,0.90
2024-01-03T03:22:05.808Z,0.80
2024-01-03T03:24:34.122Z,1.25
2024-01-03T03:27:02.248Z,0.50
2024-01-03T03:29:29.904Z,0.60
2024-01-03T03:31:58.902Z,0.68
2024-01-03T03:34:26.618Z,0.85
2024-01-03T03:36:54.314Z,0.60
2024-01-03T03:39:21.914Z,0.77
2024-01-03T03:41:49.596Z,0.82
2024-01-03T03:44:17.267Z,0.88
2024-01-03T03:46:45.240Z,0.70
2024-01-03T03:49:14.831Z,0.85
2024-01-03T03:51:42.484Z,1.23
2024-01-03T03:54:10.031Z,0.98
2024-01-03T03:56:37.673Z,0.90
2024-01-03T03:59:05.595Z,0.82
2024-01-03T04:01:33.774Z,0.93
2024-01-03T04:04:01.442Z,1.00
2024-01-03T04:06:30.554Z,0.50
2024-01-03T04:08:58.601Z,0.77
2024-01-03T04:11:26.577Z,0.88
2024-01-03T04:13:55.014Z,0.88
2024-01-03T04:16:22.637Z,1.08
2024-01-03T04:18:50.350Z,0.88
2024-01-03T04:21:18.414Z,0.70
2024-01-03T04:23:47.768Z,1.02
2024-01-03T04:26:16.036Z,0.90
2024-01-03T04:28:44.128Z,0.80
2024-01-03T04:31:11.729Z,0.80
2024-01-03T04:33:39.763Z,1.00
2024-01-03T04:36:07.902Z,1.17
2024-01-03T04:38:35.562Z,0.80
2024-01-03T04:41:04.614Z,0.85
2024-01-03T04:43:32.370Z,0.90
2024-01-03T04:46:00.492Z,0.80
2024-01-03T04:48:28.222Z,0.93
2024-01-03T04:50:56.257Z,0.77
2024-01-03T04:53:23.972Z,0.70
2024-01-03T04:55:52.192Z,0.90
2024-01-03T04:58:21.326Z,0.73
2024-01-03T05:00:50.004Z,0.60
2024-01-03T05:03:17.867Z,0.70
2024-01-03T05:05:45.954Z,0.60
2024-01-03T05:08:13.647Z,0.50
2024-01-03T05:10:41.258Z,0.80
2024-01-03T05:13:09.178Z,0.60
2024-01-03T05:15:38.199Z,0.90
2024-01-03T05:18:06.330Z,0.50
2024-01-03T05:20:34.072Z,0.50
2024-01-03T05:23:01.697Z,0.50
2024-01-03T05:25:29.244Z,0.50
2024-01-03T05:27:56.880Z,0.47
2024-01-03T05:30:24.799Z,0.50
2024-01-03T05:32:54.297Z,0.60
2024-01-03T05:35:21.989Z,0.55
2024-01-03T05:37:49.579Z,0.70
2024-01-03T05:40:19.435Z,0.60
2024-01-03T05:42:47.167Z,0.70
2024-01-03T05:45:14.803Z,0.40
2024-01-03T05:47:42.416Z,0.30
2024-01-03T05:50:11.926Z,0.40
2024-01-03T05:52:39.584Z,0.50
2024-01-03T05:55:08.271Z,0.40
2024-01-03T05:57:35.902Z,0.52
2024-01-03T06:00:04.179Z,0.60
2024-01-03T06:02:33.206Z,0.30
2024-01-03T06:05:01.444Z,0.68
2024-01-03T06:07:30.453Z,0.50
2024-01-03T06:09:58.224Z,0.30
2024-01-03T06:12:25.852Z,0.50
2024-01-03T06:14:53.569Z,0.40
2024-01-03T06:17:22.508Z,0.47
2024-01-03T06:19:50.829Z,0.63
2024-01-03T06:22:18.489Z,0.40
2024-01-03T06:24:47.764Z,0.47
2024-01-03T06:27:15.522Z,0.52
2024-01-03T06:29:45.854Z,0.70
2024-01-03T06:32:15.941Z,0.50
2024-01-03T06:34:43.546Z,0.50
2024-01-03T06:37:11.212Z,0.50
2024-01-03T06:39:39.499Z,0.40
2024-01-03T06:42:09.115Z,0.60
2024-01-03T06:44:36.735Z,0.70
2024-01-03T06:47:04.526Z,0.70
2024-01-03T06:49:32.206Z,0.70
2024-01-03T06:51:59.856Z,0.80
2024-01-03T06:54:27.449Z,0.68
2024-01-03T06:56:55.770Z,0.77
2024-01-03T06:59:24.755Z,0.85
2024-01-03T07:01:52.583Z,0.75
2024-01-03T07:04:25.826Z,0.60
2024-01-03T07:06:54.368Z,0.90
2024-01-03T07:09:22.088Z,0.60
2024-01-03T07:11:49.884Z,1.08
2024-01-03T07:14:17.771Z,0.70
2024-01-03T07:16:49.920Z,0.50
2024-01-03T07:19:19.533Z,0.70
2024-01-03T07:21:47.221Z,0.80
2024-01-03T07:24:14.851Z,0.80
2024-01-03T07:26:43.298Z,0.80
2024-01-03T07:29:10.937Z,0.50
2024-01-03T07:31:38.521Z,0.40
2024-01-03T07:34:08.181Z,0.50
2024-01-03T07:36:36.575Z,0.50
2024-01-03T07:39:04.857Z,0.70
2024-01-03T07:41:32.658Z,0.40
2024-01-03T07:44:00.445Z,0.32
2024-01-03T07:46:28.100Z,0.50
2024-01-03T07:48:56.589Z,0.52
2024-01-03T07:51:25.662Z,0.40
2024-01-03T07:53:53.367Z,0.30
2024-01-03T07:56:21.089Z,0.40
2024-01-03T07:58:49.545Z,0.38
2024-01-03T08:01:17.205Z,0.30
2024-01-03T08:03:45.012Z,0.40
2024-01-03T08:06:14.524Z,0.30
2024-01-03T08:08:43.603Z,0.50
2024-01-03T08:11:12.754Z,0.60
2024-01-03T08:13:40.828Z,0.50
2024-01-03T08:16:09.197Z,0.38
2024-01-03T08:18:37.132Z,0.50
2024-01-03T08:21:05.856Z,0.82
2024-01-03T08:23:33.511Z,0.30
2024-01-03T08:26:02.493Z,0.43
2024-01-03T08:28:30.274Z,0.45
2024-01-03T08:30:58.065Z,0.47
2024-01-03T08:33:26.131Z,0.88
2024-01-03T08:35:54.522Z,0.70
2024-01-03T08:38:22.417Z,0.93
2024-01-03T08:40:50.052Z,1.00
2024-01-03T08:43:19.043Z,1.13
2024-01-03T08:45:47.237Z,1.42
2024-01-03T08:48:15.271Z,1.20
2024-01-03T08:50:44.469Z,1.35
2024-01-03T08:53:12.665Z,1.10
2024-01-03T08:55:40.237Z,1.60
2024-01-03T08:58:08.154Z,1.50
2024-01-03T09:00:37.265Z,1.58
2024-01-03T09:03:05.161Z,2.08
2024-01-03T09:05:32.936Z,1.52
2024-01-03T09:08:03.798Z,1.65
2024-01-03T09:10:32.893Z,2.03
2024-01-03T09:13:00.450Z,1.90
2024-01-03T09:15:28.051Z,1.70
2024-01-03T09:17:57.115Z,1.25
2024-01-03T09:20:24.799Z,1.80
2024-01-03T09:22:52.943Z,1.77
2024-01-03T09:25:20.508Z,2.10
2024-01-03T09:27:48.113Z,1.70
2024-01-03T09:30:16.227Z,1.65
2024-01-03T09:32:44.067Z,1.92
2024-01-03T09:35:13.581Z,1.67
2024-01-03T09:37:41.181Z,1.50
2024-01-03T09:40:10.702Z,1.50
2024-01-03T09:42:39.340Z,1.35
2024-01-03T09:45:07.829Z,1.80
2024-01-03T09:47:35.671Z,1.60
2024-01-03T09:50:03.348Z,2.00
2024-01-03T09:52:32.414Z,1.27
2024-01-03T09:55:00.240Z,2.00
2024-01-03T09:57:28.893Z,1.65
2024-01-03T09:59:57.203Z,1.63
2024-01-03T10:02:27.383Z,1.73
2024-01-03T10:04:55.741Z,1.52
2024-01-03T10:07:34.542Z,1.52
2024-01-03T10:10:02.396Z,1.20
2024-01-03T10:12:33.123Z,1.30
2024-01-03T10:15:14.406Z,1.52
2024-01-03T10:17:43.825Z,1.52
2024-01-03T10:20:25.462Z,1.67
2024-01-03T10:23:06.977Z,1.45
2024-01-03T10:25:34.918Z,1.63
2024-01-03T10:28:03.089Z,2.00
2024-01-03T10:30:30.986Z,2.15
2024-01-03T10:33:00.323Z,1.70
2024-01-03T10:35:28.712Z,1.75
2024-01-03T10:37:57.359Z,2.03
2024-01-03T10:40:27.321Z,1.95
2024-01-03T10:42:54.995Z,1.80
2024-01-03T10:45:22.855Z,1.88
2024-01-03T10:47:50.900Z,1.80
2024-01-03T10:50:18.766Z,2.03
2024-01-03T10:52:46.691Z,2.20
2024-01-03T10:55:20.604Z,1.98
2024-01-03T10:57:55.241Z,1.80
2024-01-03T11:00:26.492Z,2.10
2024-01-03T11:02:57.961Z,1.85
2024-01-03T11:05:28.216Z,2.28
2024-01-03T11:07:57.437Z,1.90
2024-01-03T11:10:43.545Z,2.03
2024-01-03T11:16:06.900Z,2.58
2024-01-03T11:18:50.385Z,1.55
2024-01-03T11:21:38.390Z,1.45
2024-01-03T11:24:26.800Z,1.42
2024-01-03T11:27:06.106Z,1.40
2024-01-03T11:29:43.367Z,1.85
2024-01-03T11:32:14.757Z,1.58
2024-01-03T11:34:43.007Z,1.35
2024-01-03T11:37:26.098Z,1.60
2024-01-03T11:39:54.794Z,1.23
2024-01-03T11:42:23.582Z,1.98
2024-01-03T11:45:01.075Z,2.00
2024-01-03T11:47:30.556Z,1.63
2024-01-03T11:49:58.518Z,1.77
2024-01-03T11:52:26.427Z,1.63
2024-01-03T11:54:55.206Z,1.65
2024-01-03T11:57:23.905Z,1.73
2024-01-03T11:59:59.851Z,1.63
2024-01-03T12:02:27.754Z,1.38
2024-01-03T12:05:03.854Z,1.50
2024-01-03T12:07:32.987Z,1.50
2024-01-03T12:10:01.065Z,1.63
2024-01-03T12:12:29.634Z,1.63
2024-01-03T12:14:57.936Z,1.63
2024-01-03T12:17:26.488Z,1.60
2024-01-03T12:19:54.969Z,1.60
2024-01-03T12:22:24.379Z,1.50
2024-01-03T12:24:52.042Z,1.58
2024-01-03T12:27:23.664Z,1.35
2024-01-03T12:29:51.714Z,1.40
2024-01-03T12:32:20.124Z,1.20
2024-01-03T12:34:49.348Z,1.70
2024-01-03T12:37:17.167Z,1.52
2024-01-03T12:39:46.080Z,1.77
2024-01-03T12:42:14.478Z,1.38
2024-01-03T12:44:44.738Z,1.23
2024-01-03T12:47:12.558Z,0.88
2024-01-03T12:49:41.665Z,1.30
2024-01-03T12:52:10.040Z,1.25
2024-01-03T12:54:38.294Z,1.00
2024-01-03T12:57:08.940Z,1.40
2024-01-03T12:59:37.890Z,1.20
2024-01-03T13:02:07.866Z,1.30
2024-01-03T13:04:38.581Z,1.45
2024-01-03T13:07:06.226Z,1.23
2024-01-03T13:09:34.259Z,1.30
2024-01-03T13:12:02.104Z,1.35
2024-01-03T13:14:31.631Z,1.23
2024-01-03T13:16:59.675Z,1.30
2024-01-03T13:19:27.406Z,1.83
2024-01-03T13:21:55.160Z,1.83
2024-01-03T13:24:24.098Z,1.40
2024-01-03T13:26:52.069Z,1.20
2024-01-03T13:29:20.993Z,1.17
2024-01-03T13:31:50.371Z,1.73
2024-01-03T13:34:18.258Z,0.80
2024-01-03T13:36:45.976Z,0.90
2024-01-03T13:39:13.903Z,0.90
2024-01-03T13:41:41.515Z,1.38
2024-01-03T13:44:09.118Z,0.82
2024-01-03T13:46:36.921Z,1.33
2024-01-03T13:49:09.438Z,0.98
2024-01-03T13:51:37.311Z,0.70
2024-01-03T13:54:06.005Z,1.17
2024-01-03T13:56:33.984Z,1.25
2024-01-03T13:59:01.543Z,1.00
2024-01-03T14:01:29.406Z,1.40
2024-01-03T14:03:57.127Z,0.90
2024-01-03T14:06:26.125Z,0.70
2024-01-03T14:08:53.773Z,1.13
2024-01-03T14:11:22.042Z,0.90
2024-01-03T14:13:50.644Z,0.80
2024-01-03T14:16:18.394Z,0.70
2024-01-03T14:18:46.678Z,1.13
2024-01-03T14:21:14.443Z,0.90
2024-01-03T14:23:43.411Z,0.50
2024-01-03T14:26:11.186Z,0.75
2024-01-03T14:28:39.453Z,0.77
2024-01-03T14:31:08.236Z,0.60
2024-01-03T14:33:36.392Z,0.80
2024-01-03T14:36:04.351Z,0.70
2024-01-03T14:38:36.672Z,0.82
2024-01-03T14:41:12.266Z,0.88
2024-01-03T14:43:44.968Z,1.13
2024-01-03T14:46:13.753Z,0.57
2024-01-03T14:48:42.225Z,0.80
2024-01-03T14:51:10.511Z,1.25
2024-01-03T14:53:38.153Z,0.82
2024-01-03T14:56:09.803Z,0.60
2024-01-03T14:58:40.508Z,1.15
2024-01-03T15:01:09.117Z,0.77
2024-01-03T15:03:36.825Z,0.60
2024-01-03T15:06:05.300Z,0.95
2024-01-03T15:08:33.107Z,0.80
2024-01-03T15:11:00.917Z,0.80
2024-01-03T15:13:29.832Z,1.00
2024-01-03T15:15:58.781Z,0.90
2024-01-03T15:18:26.689Z,0.73
2024-01-03T15:20:54.535Z,0.65
2024-01-03T15:23:23.355Z,0.80
2024-01-03T15:25:51.884Z,0.70
2024-01-03T15:28:19.459Z,0.68
2024-01-03T15:30:49.560Z,0.80
2024-01-03T15:33:18.160Z,0.80
2024-01-03T15:35:46.068Z,0.75
2024-01-03T15:38:13.810Z,0.80
2024-01-03T15:40:41.787Z,0.70
2024-01-03T15:43:09.683Z,0.93
2024-01-03T15:45:37.408Z,0.70
2024-01-03T15:48:07.188Z,0.60
2024-01-03T15:50:35.128Z,0.70
2024-01-03T15:53:02.761Z,0.80
2024-01-03T15:55:30.318Z,0.80
2024-01-03T15:57:57.869Z,0.90
2024-01-03T16:00:25.709Z,1.00
2024-01-03T16:02:53.574Z,1.00
2024-01-03T16:05:22.754Z,0.60
2024-01-03T16:07:50.443Z,0.85
2024-01-03T16:10:18.168Z,1.20
2024-01-03T16:12:46.385Z,0.70
2024-01-03T16:15:15.336Z,0.82
2024-01-03T16:17:43.179Z,1.05
2024-01-03T16:20:13.165Z,1.20
2024-01-03T16:22:42.502Z,1.13
2024-01-03T16:25:12.929Z,1.15
2024-01-03T16:27:40.671Z,1.40
2024-01-03T16:30:09.414Z,1.98
2024-01-03T16:32:37.183Z,1.88
2024-01-03T16:35:05.441Z,2.05
2024-01-03T16:37:33.201Z,1.98
2024-01-03T16:40:02.186Z,1.70
2024-01-03T16:42:29.814Z,1.85
2024-01-03T16:44:57.621Z,2.15
2024-01-03T16:47:25.349Z,1.83
2024-01-03T16:49:53.093Z,1.65
2024-01-03T16:52:22.128Z,2.00
2024-01-03T16:54:49.679Z,1.65
2024-01-03T16:57:18.973Z,1.77
2024-01-03T16:59:48.916Z,2.60
2024-01-03T17:02:17.403Z,1.98
2024-01-03T17:04:45.496Z,1.80
2024-01-03T17:07:13.350Z,2.30
2024-01-03T17:09:41.059Z,2.20
2024-01-03T17:12:08.734Z,1.90
2024-01-03T17:14:37.931Z,1.88
2024-01-03T17:17:05.525Z,2.00
2024-01-03T17:19:33.469Z,2.22
2024-01-03T17:22:01.238Z,2.10
2024-01-03T17:24:30.237Z,2.13
2024-01-03T17:26:58.379Z,2.20
2024-01-03T17:29:26.021Z,2.38
2024-01-03T17:31:54.995Z,3.10
2024-01-03T17:34:22.787Z,2.70
2024-01-03T17:36:50.546Z,2.80
2024-01-03T17:39:18.641Z,3.80
2024-01-03T17:41:46.480Z,2.80
2024-01-03T17:44:14.479Z,2.80
2024-01-03T17:46:42.502Z,2.35
2024-01-03T17:49:11.617Z,2.63
2024-01-03T17:51:39.947Z,2.20
2024-01-03T17:54:07.705Z,1.98
2024-01-03T17:56:35.432Z,2.03
2024-01-03T17:59:05.293Z,2.30
2024-01-03T18:01:34.018Z,1.80
2024-01-03T18:04:01.935Z,2.15
2024-01-03T18:06:31.629Z,2.40
2024-01-03T18:08:59.321Z,1.65
2024-01-03T18:11:27.040Z,1.45
2024-01-03T18:13:55.273Z,1.70
2024-01-03T18:16:24.055Z,1.60
2024-01-03T18:18:52.959Z,1.48
2024-01-03T18:21:20.825Z,1.63
2024-01-03T18:23:49.860Z,1.40
2024-01-03T18:26:20.600Z,2.25
2024-01-03T18:28:51.002Z,1.50
2024-01-03T18:31:19.267Z,1.00
2024-01-03T18:33:47.510Z,1.63
2024-01-03T18:36:15.660Z,1.92
2024-01-03T18:38:43.296Z,1.58
2024-01-03T18:41:12.234Z,2.78
2024-01-03T18:43:39.876Z,2.03
2024-01-03T18:46:08.655Z,2.08
2024-01-03T18:48:36.873Z,1.73
2024-01-03T18:51:05.749Z,1.50
2024-01-03T18:53:34.558Z,1.58
2024-01-03T18:56:02.301Z,1.48
2024-01-03T18:58:31.249Z,1.30
2024-01-03T19:01:00.237Z,1.20
2024-01-03T19:03:28.616Z,0.90
2024-01-03T19:05:56.601Z,0.90
2024-01-03T19:08:25.109Z,1.27
2024-01-03T19:10:52.762Z,1.30
2024-01-03T19:13:20.355Z,1.60
2024-01-03T19:15:50.977Z,1.17
2024-01-03T19:18:19.137Z,1.13
2024-01-03T19:20:48.298Z,1.10
2024-01-03T19:23:15.937Z,1.35
2024-01-03T19:25:43.999Z,1.20
2024-01-03T19:28:11.836Z,1.40
2024-01-03T19:30:39.845Z,1.17
2024-01-03T19:33:09.563Z,1.08
2024-01-03T19:35:37.315Z,2.28
2024-01-03T19:38:05.296Z,1.05
2024-01-03T19:40:32.937Z,1.45
2024-01-03T19:43:00.529Z,0.90
2024-01-03T19:45:28.634Z,1.27
2024-01-03T19:47:56.974Z,1.00
2024-01-03T19:50:26.143Z,1.30
2024-01-03T19:52:54.233Z,1.10
2024-01-03T19:55:22.243Z,0.88
2024-01-03T19:57:49.856Z,1.15
2024-01-03T20:00:18.167Z,1.33
2024-01-03T20:02:46.982Z,1.02
2024-01-03T20:05:15.101Z,1.23
2024-01-03T20:07:44.066Z,1.00
2024-01-03T20:10:12.217Z,1.25
2024-01-03T20:12:39.823Z,0.85
2024-01-03T20:15:12.034Z,1.17
2024-01-03T20:17:40.200Z,2.03
2024-01-03T20:20:08.549Z,1.60
2024-01-03T20:22:36.234Z,1.15
2024-01-03T20:25:05.354Z,1.48
2024-01-03T20:27:32.957Z,1.75
2024-01-03T20:30:00.728Z,1.55
2024-01-03T20:32:28.510Z,1.60
2024-01-03T20:34:56.187Z,1.50
2024-01-03T20:37:24.709Z,1.50
2024-01-03T20:39:52.508Z,1.27
2024-01-03T20:42:21.391Z,1.60
2024-01-03T20:44:50.615Z,1.38
2024-01-03T20:47:18.259Z,1.98
2024-01-03T20:49:49.176Z,1.52
2024-01-03T20:52:18.045Z,1.40
2024-01-03T20:54:45.867Z,2.20
2024-01-03T20:57:13.609Z,2.03
2024-01-03T20:59:42.641Z,1.67
2024-01-03T21:02:10.558Z,1.90
2024-01-03T21:04:39.012Z,1.05
2024-01-03T21:07:06.669Z,1.73
2024-01-03T21:09:34.230Z,1.35
2024-01-03T21:12:01.994Z,1.50
2024-01-03T21:14:30.501Z,1.55
2024-01-03T21:17:00.348Z,1.60
2024-01-03T21:19:29.064Z,1.25
2024-01-03T21:21:56.859Z,2.00
2024-01-03T21:24:24.516Z,1.48
2024-01-03T21:26:54.542Z,2.35
2024-01-03T21:29:29.504Z,1.77
2024-01-03T21:32:00.944Z,1.92
2024-01-03T21:34:29.449Z,1.30
2024-01-03T21:36:57.251Z,1.40
2024-01-03T21:39:24.851Z,1.67
2024-01-03T21:41:52.587Z,1.23
2024-01-03T21:44:20.891Z,1.30
2024-01-03T21:46:49.066Z,1.15
2024-01-03T21:49:18.596Z,1.33
2024-01-03T21:51:46.319Z,1.40
2024-01-03T21:54:13.977Z,1.30
2024-01-03T21:56:41.717Z,1.45
2024-01-03T21:59:09.450Z,1.08
2024-01-03T22:01:37.074Z,1.50
2024-01-03T22:04:05.300Z,1.30
2024-01-03T22:06:34.400Z,1.25
2024-01-03T22:09:03.402Z,1.38
2024-01-03T22:11:31.065Z,1.92
2024-01-03T22:13:58.713Z,1.63
2024-01-03T22:16:26.317Z,1.70
2024-01-03T22:18:53.990Z,2.85
2024-01-03T22:21:22.258Z,1.50
2024-01-03T22:23:54.891Z,1.25
2024-01-03T22:26:22.551Z,1.80
2024-01-03T22:28:50.102Z,1.58
2024-01-03T22:31:18.074Z,1.40
2024-01-03T22:33:46.724Z,1.50
2024-01-03T22:36:15.397Z,1.48
2024-01-03T22:38:43.070Z,1.70
2024-01-03T22:41:12.031Z,1.58
2024-01-03T22:43:39.860Z,1.65
2024-01-03T22:46:07.482Z,1.77
2024-01-03T22:48:35.596Z,1.60
2024-01-03T22:51:03.385Z,1.20
2024-01-03T22:53:31.187Z,1.65
2024-01-03T22:55:59.036Z,1.92
2024-01-03T22:58:28.198Z,1.30
2024-01-03T23:00:56.469Z,1.20
2024-01-03T23:03:24.571Z,1.00
2024-01-03T23:05:52.383Z,1.20
2024-01-03T23:08:20.046Z,1.40
2024-01-03T23:10:48.934Z,1.20
2024-01-03T23:13:16.762Z,1.33
2024-01-03T23:15:45.735Z,1.27
2024-01-03T23:18:13.796Z,1.50
2024-01-03T23:20:41.707Z,1.30
2024-01-03T23:23:10.966Z,1.20
2024-01-03T23:25:39.570Z,1.70
2024-01-03T23:28:07.633Z,1.35
2024-01-03T23:30:35.241Z,1.67
2024-01-03T23:33:04.788Z,1.60
2024-01-03T23:35:32.447Z,1.40
2024-01-03T23:38:01.788Z,1.70
2024-01-03T23:40:29.979Z,1.88
2024-01-03T23:42:58.297Z,2.13
2024-01-03T23:45:27.377Z,1.80
2024-01-03T23:47:56.060Z,2.10
2024-01-03T23:50:25.005Z,1.70
2024-01-03T23:52:53.238Z,2.00
2024-01-03T23:55:20.831Z,1.38
2024-01-03T23:57:48.507Z,1.60
